createdAt,value
2022-11-04T00:00:12.982Z,19.59
2022-11-04T00:01:15.045Z,20.92
2022-11-04T00:02:17.020Z,17.05
2022-11-04T00:03:19.296Z,20.89
2022-11-04T00:04:23.735Z,18.81
2022-11-04T00:05:25.760Z,19.71
2022-11-04T00:06:28.489Z,16.31
2022-11-04T00:07:30.578Z,17.02
2022-11-04T00:08:32.712Z,17.61
2022-11-04T00:09:34.613Z,15.41
2022-11-04T00:10:36.601Z,20.33
2022-11-04T00:11:39.207Z,18.97
2022-11-04T00:12:41.118Z,16.16
2022-11-04T00:13:43.519Z,17.05
2022-11-04T00:14:45.461Z,16.15
2022-11-04T00:15:47.343Z,18.17
2022-11-04T00:16:49.553Z,15.57
2022-11-04T00:17:51.586Z,15.50
2022-11-04T00:18:53.766Z,15.80
2022-11-04T00:19:55.672Z,15.17
2022-11-04T00:20:57.645Z,17.21
2022-11-04T00:21:59.513Z,16.75
2022-11-04T00:23:01.447Z,15.15
2022-11-04T00:24:04.842Z,16.69
2022-11-04T00:25:09.073Z,18.30
2022-11-04T00:26:12.023Z,15.01
2022-11-04T00:27:17.605Z,17.13
2022-11-04T00:28:20.041Z,15.73
2022-11-04T00:29:21.924Z,18.16
2022-11-04T00:30:24.145Z,14.73
2022-11-04T00:31:26.032Z,16.54
2022-11-04T00:32:28.085Z,18.85
2022-11-04T00:33:30.106Z,19.05
2022-11-04T00:34:32.004Z,20.31
2022-11-04T00:35:33.896Z,19.63
2022-11-04T00:36:35.872Z,18.86
2022-11-04T00:37:39.466Z,19.71
2022-11-04T00:38:41.392Z,19.76
2022-11-04T00:39:43.266Z,18.13
2022-11-04T00:40:45.263Z,16.75
2022-11-04T00:41:47.248Z,17.23
2022-11-04T00:42:49.186Z,18.11
2022-11-04T00:43:59.566Z,16.43
2022-11-04T00:45:02.084Z,15.21
2022-11-04T00:46:04.541Z,15.43
2022-11-04T00:47:06.588Z,13.29
2022-11-04T00:48:09.507Z,17.21
2022-11-04T00:49:12.194Z,16.64
2022-11-04T00:50:15.682Z,16.23
2022-11-04T00:51:17.707Z,15.91
2022-11-04T00:52:20.918Z,13.93
2022-11-04T00:53:22.852Z,15.88
2022-11-04T00:54:24.870Z,14.33
2022-11-04T00:55:29.976Z,13.41
2022-11-04T00:56:32.409Z,13.63
2022-11-04T00:57:34.301Z,13.64
2022-11-04T00:58:36.828Z,15.45
2022-11-04T00:59:39.318Z,12.98
2022-11-04T01:00:41.410Z,13.60
2022-11-04T01:01:43.444Z,14.77
2022-11-04T01:02:46.412Z,15.35
2022-11-04T01:03:51.053Z,15.92
2022-11-04T01:04:53.889Z,16.14
2022-11-04T01:05:57.521Z,14.24
2022-11-04T01:07:00.419Z,15.86
2022-11-04T01:08:04.282Z,13.33
2022-11-04T01:09:08.005Z,14.92
2022-11-04T01:10:10.942Z,16.25
2022-11-04T01:11:13.789Z,12.31
2022-11-04T01:12:17.064Z,13.73
2022-11-04T01:13:18.996Z,15.71
2022-11-04T01:14:22.508Z,16.17
2022-11-04T01:15:24.432Z,15.52
2022-11-04T01:17:29.454Z,15.74
2022-11-04T01:18:32.771Z,16.58
2022-11-04T01:19:35.458Z,15.26
2022-11-04T01:20:37.615Z,15.83
2022-11-04T01:21:39.507Z,14.88
2022-11-04T01:22:41.446Z,14.40
2022-11-04T01:23:44.757Z,14.83
2022-11-04T01:24:46.660Z,15.41
2022-11-04T01:25:48.546Z,14.69
2022-11-04T01:26:50.552Z,14.18
2022-11-04T01:27:52.558Z,17.33
2022-11-04T01:28:55.960Z,14.90
2022-11-04T01:29:57.892Z,15.61
2022-11-04T01:31:05.669Z,13.44
2022-11-04T01:32:07.603Z,15.50
2022-11-04T01:33:09.505Z,15.40
2022-11-04T01:34:12.174Z,15.55
2022-11-04T01:35:14.259Z,15.71
2022-11-04T01:36:16.982Z,15.94
2022-11-04T01:37:18.876Z,17.29
2022-11-04T01:38:20.838Z,16.23
2022-11-04T01:39:22.717Z,16.61
2022-11-04T01:40:25.963Z,16.93
2022-11-04T01:41:31.543Z,15.23
2022-11-04T01:42:33.459Z,16.77
2022-11-04T01:44:00.182Z,17.73
2022-11-04T01:45:02.880Z,15.84
2022-11-04T01:46:05.268Z,17.52
2022-11-04T01:47:16.743Z,16.51
2022-11-04T01:49:57.701Z,19.11
2022-11-04T01:51:00.119Z,17.01
2022-11-04T01:52:11.808Z,17.49
2022-11-04T01:53:20.343Z,20.94
2022-11-04T01:54:22.580Z,16.97
2022-11-04T01:55:28.250Z,19.33
2022-11-04T01:56:31.912Z,24.30
2022-11-04T01:57:37.737Z,29.71
2022-11-04T01:58:46.497Z,40.11
2022-11-04T01:59:48.907Z,43.42
2022-11-04T02:00:51.408Z,33.23
2022-11-04T02:01:53.584Z,34.46
2022-11-04T02:03:05.364Z,37.35
2022-11-04T02:04:10.116Z,36.29
2022-11-04T02:05:12.541Z,30.28
2022-11-04T02:06:16.426Z,29.06
2022-11-04T02:07:18.349Z,24.11
2022-11-04T02:08:21.648Z,27.33
2022-11-04T02:09:26.246Z,25.84
2022-11-04T02:10:30.600Z,28.32
2022-11-04T02:11:32.538Z,27.06
2022-11-04T02:12:34.422Z,23.11
2022-11-04T02:13:36.807Z,23.06
2022-11-04T02:14:40.411Z,25.33
2022-11-04T02:15:58.412Z,20.29
2022-11-04T02:17:07.783Z,20.52
2022-11-04T02:18:19.152Z,19.50
2022-11-04T02:22:52.078Z,17.97
2022-11-04T02:24:30.099Z,18.27
2022-11-04T02:26:05.000Z,16.91
2022-11-04T02:27:10.680Z,15.93
2022-11-04T02:28:25.579Z,19.58
2022-11-04T02:29:33.927Z,16.99
2022-11-04T02:30:42.467Z,16.91
2022-11-04T02:32:05.279Z,19.36
2022-11-04T02:33:13.798Z,15.83
2022-11-04T02:34:28.286Z,16.44
2022-11-04T02:35:39.951Z,15.28
2022-11-04T02:36:45.728Z,16.44
2022-11-04T02:37:54.544Z,15.75
2022-11-04T02:39:09.451Z,14.84
2022-11-04T02:40:37.023Z,14.66
2022-11-04T02:41:43.412Z,14.63
2022-11-04T02:43:20.736Z,17.10
2022-11-04T02:44:38.222Z,14.41
2022-11-04T02:45:44.124Z,14.12
2022-11-04T02:46:55.798Z,14.52
2022-11-04T02:48:04.392Z,14.64
2022-11-04T02:49:15.935Z,15.02
2022-11-04T02:50:28.815Z,12.64
2022-11-04T02:53:24.774Z,16.29
2022-11-04T02:55:40.214Z,12.60
2022-11-04T02:56:46.112Z,15.22
2022-11-04T02:57:51.798Z,14.09
2022-11-04T02:58:58.358Z,15.14
2022-11-04T03:00:06.701Z,13.91
2022-11-04T03:01:12.557Z,14.16
2022-11-04T03:02:18.573Z,14.77
2022-11-04T03:04:46.276Z,12.86
2022-11-04T03:05:51.988Z,13.08
2022-11-04T03:06:56.714Z,14.86
2022-11-04T03:08:03.501Z,11.95
2022-11-04T03:09:08.295Z,11.06
2022-11-04T03:10:14.500Z,12.64
2022-11-04T03:11:22.806Z,13.99
2022-11-04T03:12:28.688Z,11.94
2022-11-04T03:13:40.735Z,14.52
2022-11-04T03:14:46.446Z,11.05
2022-11-04T03:16:04.166Z,13.02
2022-11-04T03:17:21.878Z,14.75
2022-11-04T03:18:36.394Z,11.14
2022-11-04T03:19:42.933Z,13.23
2022-11-04T03:20:47.882Z,15.05
2022-11-04T03:22:02.415Z,14.26
2022-11-04T03:23:05.992Z,12.69
2022-11-04T03:24:08.144Z,12.29
2022-11-04T03:25:10.424Z,13.29
2022-11-04T03:26:16.273Z,15.43
2022-11-04T03:27:39.733Z,13.11
2022-11-04T03:28:48.400Z,13.28
2022-11-04T03:30:05.752Z,14.04
2022-11-04T03:31:11.560Z,10.68
2022-11-04T03:32:23.003Z,14.62
2022-11-04T03:34:57.252Z,14.16
2022-11-04T03:35:59.340Z,17.67
2022-11-04T03:37:01.746Z,12.51
2022-11-04T03:38:06.095Z,12.27
2022-11-04T03:39:08.226Z,17.22
2022-11-04T03:40:14.145Z,16.63
2022-11-04T03:41:21.786Z,13.91
2022-11-04T03:42:27.546Z,13.43
2022-11-04T03:43:31.784Z,12.88
2022-11-04T03:44:33.707Z,13.06
2022-11-04T03:45:36.705Z,11.36
2022-11-04T03:46:40.123Z,11.98
2022-11-04T03:47:43.445Z,13.54
2022-11-04T03:48:45.645Z,13.13
2022-11-04T03:49:48.943Z,13.68
2022-11-04T03:50:51.453Z,10.35
2022-11-04T03:51:53.355Z,11.99
2022-11-04T03:52:56.817Z,14.29
2022-11-04T03:53:59.462Z,12.68
2022-11-04T03:55:03.283Z,11.80
2022-11-04T03:56:11.645Z,13.12
2022-11-04T03:57:35.593Z,12.54
2022-11-04T03:58:56.495Z,13.01
2022-11-04T04:00:11.190Z,11.42
2022-11-04T04:01:22.849Z,16.66
2022-11-04T04:02:31.879Z,10.85
2022-11-04T04:03:37.665Z,11.22
2022-11-04T04:04:43.542Z,11.29
2022-11-04T04:05:56.968Z,12.34
2022-11-04T04:07:05.533Z,11.22
2022-11-04T04:09:42.702Z,12.36
2022-11-04T04:10:57.733Z,10.72
2022-11-04T04:13:28.777Z,13.53
2022-11-04T04:14:34.553Z,11.04
2022-11-04T04:15:46.305Z,10.91
2022-11-04T04:16:51.161Z,11.38
2022-11-04T04:20:22.101Z,14.17
2022-11-04T04:21:27.779Z,10.76
2022-11-04T04:22:39.493Z,10.76
2022-11-04T04:23:44.292Z,12.48
2022-11-04T04:24:49.422Z,12.66
2022-11-04T04:25:54.409Z,10.81
2022-11-04T04:26:57.838Z,12.12
2022-11-04T04:28:01.562Z,12.66
2022-11-04T04:29:06.445Z,14.76
2022-11-04T04:30:12.363Z,10.94
2022-11-04T04:31:16.191Z,11.81
2022-11-04T04:32:21.856Z,12.82
2022-11-04T04:33:23.835Z,12.47
2022-11-04T04:34:30.763Z,13.22
2022-11-04T04:35:42.508Z,14.56
2022-11-04T04:36:56.875Z,16.07
2022-11-04T04:38:02.547Z,14.44
2022-11-04T04:39:08.176Z,12.07
2022-11-04T04:40:14.027Z,14.54
2022-11-04T04:41:22.475Z,14.55
2022-11-04T04:42:25.017Z,14.01
2022-11-04T04:43:27.039Z,14.37
2022-11-04T04:44:29.287Z,14.56
2022-11-04T04:45:34.975Z,16.02
2022-11-04T04:46:40.101Z,16.08
2022-11-04T04:47:45.097Z,15.50
2022-11-04T04:48:47.132Z,14.93
2022-11-04T04:49:57.937Z,17.24
2022-11-04T04:51:00.661Z,13.21
2022-11-04T04:52:05.685Z,16.75
2022-11-04T04:53:09.155Z,12.58
2022-11-04T04:54:12.604Z,15.39
2022-11-04T04:55:15.017Z,14.39
2022-11-04T04:56:17.048Z,14.39
2022-11-04T04:57:19.044Z,15.16
2022-11-04T04:58:21.033Z,13.69
2022-11-04T04:59:22.959Z,12.09
2022-11-04T05:00:26.628Z,14.02
2022-11-04T05:01:28.849Z,17.56
2022-11-04T07:05:09.808Z,22.44
2022-11-04T07:06:12.715Z,25.66
2022-11-04T07:07:14.615Z,28.35
2022-11-04T07:08:16.643Z,25.34
2022-11-04T07:09:18.838Z,27.26
2022-11-04T07:10:20.836Z,29.44
2022-11-04T07:11:23.789Z,26.33
2022-11-04T07:12:26.276Z,27.67
2022-11-04T07:13:29.901Z,30.18
2022-11-04T07:14:31.895Z,24.58
2022-11-04T07:15:33.882Z,23.27
2022-11-04T07:16:36.334Z,23.17
2022-11-04T07:17:38.329Z,25.99
2022-11-04T07:18:41.095Z,21.95
2022-11-04T07:19:45.154Z,21.03
2022-11-04T07:20:47.314Z,23.72
2022-11-04T07:21:49.251Z,21.47
2022-11-04T07:22:56.096Z,22.37
2022-11-04T07:24:00.284Z,23.20
2022-11-04T07:25:02.466Z,23.52
2022-11-04T07:26:07.112Z,21.05
2022-11-04T07:27:09.066Z,20.74
2022-11-04T07:28:11.761Z,19.53
2022-11-04T07:29:14.279Z,18.71
2022-11-04T07:30:16.408Z,21.50
2022-11-04T07:31:18.429Z,19.11
2022-11-04T07:32:20.440Z,19.10
2022-11-04T07:33:23.017Z,19.93
2022-11-04T07:34:24.922Z,19.88
2022-11-04T07:35:26.905Z,20.19
2022-11-04T07:36:29.605Z,19.55
2022-11-04T07:37:31.527Z,18.55
2022-11-04T07:38:34.697Z,15.75
2022-11-04T07:39:36.635Z,17.42
2022-11-04T07:40:38.653Z,21.51
2022-11-04T07:41:40.844Z,20.13
2022-11-04T07:42:42.885Z,15.55
2022-11-04T07:43:49.507Z,19.05
2022-11-04T07:44:51.429Z,18.27
2022-11-04T07:46:01.826Z,23.34
2022-11-04T07:47:03.920Z,19.17
2022-11-04T07:48:07.761Z,18.78
2022-11-04T07:49:09.924Z,18.53
2022-11-04T07:50:12.964Z,17.05
2022-11-04T07:51:17.358Z,17.99
2022-11-04T07:52:19.464Z,18.32
2022-11-04T07:53:22.393Z,19.93
2022-11-04T07:54:24.478Z,19.08
2022-11-04T07:55:26.683Z,18.24
2022-11-04T07:56:28.777Z,19.00
2022-11-04T07:57:30.719Z,19.51
2022-11-04T07:58:33.915Z,20.82
2022-11-04T07:59:35.824Z,17.62
2022-11-04T08:00:37.799Z,19.29
2022-11-04T08:01:39.788Z,16.86
2022-11-04T08:02:43.601Z,16.45
2022-11-04T08:03:45.551Z,19.58
2022-11-04T08:04:47.587Z,19.99
2022-11-04T08:05:55.355Z,18.75
2022-11-04T08:06:57.508Z,19.87
2022-11-04T08:07:59.518Z,19.02
2022-11-04T08:09:01.581Z,15.39
2022-11-04T08:10:04.793Z,18.39
2022-11-04T08:11:15.837Z,17.71
2022-11-04T08:12:16.104Z,18.03
2022-11-04T08:13:18.015Z,18.38
2022-11-04T08:14:20.132Z,18.35
2022-11-04T08:15:22.147Z,18.87
2022-11-04T08:16:27.705Z,18.49
2022-11-04T08:17:29.150Z,20.11
2022-11-04T08:18:32.820Z,15.87
2022-11-04T08:19:34.723Z,20.00
2022-11-04T08:20:37.223Z,16.37
2022-11-04T08:21:39.137Z,17.63
2022-11-04T08:22:41.022Z,19.05
2022-11-04T08:23:44.551Z,18.87
2022-11-04T08:24:46.637Z,19.73
2022-11-04T08:25:48.705Z,21.11
2022-11-04T08:26:50.682Z,15.54
2022-11-04T08:27:56.776Z,18.23
2022-11-04T08:28:57.057Z,18.38
2022-11-04T08:29:58.927Z,19.65
2022-11-04T08:31:06.933Z,15.75
2022-11-04T08:32:09.764Z,16.55
2022-11-04T08:33:11.894Z,15.73
2022-11-04T08:34:13.968Z,19.22
2022-11-04T08:35:15.862Z,17.26
2022-11-04T08:36:25.058Z,18.62
2022-11-04T08:37:27.203Z,13.91
2022-11-04T08:38:29.952Z,16.21
2022-11-04T08:39:32.444Z,14.94
2022-11-04T08:40:36.434Z,15.52
2022-11-04T08:41:41.152Z,17.25
2022-11-04T08:42:43.273Z,13.86
2022-11-04T08:43:46.095Z,17.11
2022-11-04T08:44:51.269Z,15.94
2022-11-04T08:45:53.791Z,18.15
2022-11-04T08:46:56.819Z,16.87
2022-11-04T08:48:05.190Z,15.92
2022-11-04T08:49:09.940Z,16.77
2022-11-04T08:50:09.404Z,16.01
2022-11-04T08:51:18.195Z,16.44
2022-11-04T08:52:20.116Z,16.49
2022-11-04T08:53:22.133Z,19.76
2022-11-04T08:54:24.948Z,15.96
2022-11-04T08:55:31.095Z,16.55
2022-11-04T08:56:36.159Z,14.48
2022-11-04T08:57:38.108Z,19.39
2022-11-04T08:58:42.077Z,13.47
2022-11-04T08:59:43.990Z,13.82
2022-11-04T09:00:46.078Z,15.01
2022-11-04T09:01:48.025Z,21.32
2022-11-04T09:02:50.923Z,16.62
2022-11-04T09:03:53.414Z,16.77
2022-11-04T09:04:55.395Z,16.91
2022-11-04T09:05:58.743Z,13.69
2022-11-04T09:07:07.734Z,15.71
2022-11-04T09:08:06.225Z,14.44
2022-11-04T09:09:12.269Z,14.74
2022-11-04T09:10:14.308Z,15.08
2022-11-04T09:11:17.012Z,12.87
2022-11-04T09:12:18.923Z,12.98
2022-11-04T09:13:20.946Z,14.43
2022-11-04T09:14:22.829Z,11.82
2022-11-04T09:15:24.734Z,14.49
2022-11-04T09:16:29.607Z,14.46
2022-11-04T09:17:31.602Z,13.72
2022-11-04T09:18:35.086Z,14.25
2022-11-04T09:19:37.001Z,14.18
2022-11-04T09:20:39.669Z,12.89
2022-11-04T09:21:41.745Z,13.18
2022-11-04T09:22:46.020Z,14.57
2022-11-04T09:23:47.448Z,15.53
2022-11-04T09:24:49.423Z,13.29
2022-11-04T09:25:52.672Z,14.93
2022-11-04T09:26:54.807Z,14.17
2022-11-04T09:27:56.700Z,14.10
2022-11-04T09:28:59.331Z,16.77
2022-11-04T09:30:01.395Z,28.25
2022-11-04T09:31:09.508Z,23.84
2022-11-04T09:32:11.507Z,23.18
2022-11-04T09:33:13.390Z,20.07
2022-11-04T09:34:15.662Z,19.16
2022-11-04T09:35:17.773Z,16.95
2022-11-04T09:36:19.772Z,16.11
2022-11-04T09:37:21.666Z,15.78
2022-11-04T09:38:24.670Z,15.11
2022-11-04T09:39:26.807Z,14.94
2022-11-04T09:40:29.437Z,17.07
2022-11-04T09:41:46.666Z,17.23
2022-11-04T09:43:21.783Z,16.83
2022-11-04T09:45:14.835Z,15.24
2022-11-04T09:45:48.378Z,16.17
2022-11-04T09:46:53.972Z,16.55
2022-11-04T09:47:59.719Z,17.90
2022-11-04T09:49:05.186Z,18.24
2022-11-04T09:50:11.355Z,23.61
2022-11-04T09:51:32.609Z,20.02
2022-11-04T09:52:36.509Z,18.91
2022-11-04T09:53:42.231Z,18.07
2022-11-04T09:55:02.947Z,15.38
2022-11-04T09:57:25.202Z,16.30
2022-11-04T09:58:31.043Z,13.17
2022-11-04T09:59:34.352Z,18.68
2022-11-04T10:00:38.811Z,16.34
2022-11-04T10:01:53.607Z,17.36
2022-11-04T10:03:14.616Z,15.03
2022-11-04T10:06:06.179Z,17.95
2022-11-04T10:07:17.742Z,15.86
2022-11-04T10:08:41.894Z,17.12
2022-11-04T14:26:06.048Z,27.86
2022-11-04T14:27:28.338Z,27.34
2022-11-04T14:28:32.937Z,27.61
2022-11-04T14:29:35.567Z,24.39
2022-11-04T14:30:55.227Z,26.69
2022-11-04T14:31:59.496Z,21.67
2022-11-04T14:33:05.182Z,25.41
2022-11-04T14:34:09.715Z,22.53
2022-11-04T14:35:18.217Z,19.65
2022-11-04T14:36:26.986Z,21.34
2022-11-04T14:39:47.019Z,21.33
2022-11-04T14:43:07.227Z,22.55
2022-11-04T14:44:16.247Z,20.35
2022-11-04T14:45:28.300Z,21.22
2022-11-04T14:46:36.809Z,21.63
2022-11-04T14:47:41.657Z,16.79
2022-11-04T14:48:47.197Z,17.72
2022-11-04T14:49:52.911Z,18.80
2022-11-04T14:50:56.233Z,19.94
2022-11-04T14:51:58.242Z,19.16
2022-11-04T14:53:03.035Z,21.41
2022-11-04T14:54:11.683Z,18.97
2022-11-04T14:55:17.341Z,18.01
2022-11-04T14:56:24.501Z,18.66
2022-11-04T14:57:29.146Z,17.84
2022-11-04T14:58:31.406Z,18.83
2022-11-04T14:59:33.420Z,17.05
2022-11-04T15:00:51.928Z,17.08
2022-11-04T15:01:55.012Z,17.54
2022-11-04T15:03:41.210Z,17.02
2022-11-04T15:04:28.933Z,15.08
2022-11-04T15:05:32.017Z,17.27
2022-11-04T15:06:47.051Z,18.24
2022-11-04T15:07:39.155Z,16.11
2022-11-04T15:08:44.334Z,16.34
2022-11-04T15:09:48.961Z,17.24
2022-11-04T15:10:54.439Z,16.14
2022-11-04T15:12:11.804Z,17.17
2022-11-04T15:13:17.467Z,16.97
2022-11-04T15:14:24.628Z,17.36
2022-11-04T15:15:36.069Z,19.44
2022-11-04T15:16:39.438Z,16.41
2022-11-04T15:17:41.702Z,21.87
2022-11-04T15:18:44.843Z,31.51
2022-11-04T15:22:06.740Z,43.61
2022-11-04T15:23:12.851Z,32.59
2022-11-04T15:24:16.284Z,29.02
2022-11-04T15:25:20.183Z,29.34
2022-11-04T15:26:31.180Z,30.65
2022-11-04T15:27:35.760Z,30.41
2022-11-04T15:31:06.237Z,31.68
2022-11-04T15:33:15.793Z,31.03
2022-11-04T15:34:18.319Z,29.75
2022-11-04T15:35:21.376Z,29.05
2022-11-04T15:36:29.664Z,28.08
2022-11-04T15:37:33.783Z,31.23
2022-11-04T15:38:38.505Z,33.58
2022-11-04T15:39:44.102Z,33.09
2022-11-04T15:40:46.491Z,33.45
2022-11-04T15:41:55.061Z,33.06
2022-11-04T15:43:00.202Z,31.95
2022-11-04T15:44:03.007Z,27.04
2022-11-04T15:45:27.340Z,29.35
2022-11-04T15:46:30.019Z,28.28
2022-11-04T15:47:31.942Z,29.32
2022-11-04T15:48:34.376Z,31.05
2022-11-04T15:49:37.046Z,31.55
2022-11-04T15:50:41.252Z,28.44
2022-11-04T15:51:43.381Z,25.76
2022-11-04T15:52:49.043Z,29.23
2022-11-04T15:54:17.682Z,26.02
2022-11-04T15:56:37.098Z,27.65
2022-11-04T15:57:39.998Z,26.82
2022-11-04T15:58:44.400Z,26.31
2022-11-04T15:59:50.142Z,29.00
2022-11-04T16:00:54.261Z,27.83
2022-11-04T16:01:57.381Z,26.83
2022-11-04T16:03:00.674Z,31.34
2022-11-04T16:04:05.272Z,27.79
2022-11-04T16:06:39.072Z,27.40
2022-11-04T16:07:43.971Z,23.79
2022-11-04T16:09:01.160Z,24.70
2022-11-04T16:10:23.288Z,25.11
2022-11-04T16:11:25.375Z,21.42
2022-11-04T16:12:37.182Z,24.37
2022-11-04T16:13:39.777Z,22.97
2022-11-04T16:14:50.508Z,21.44
2022-11-04T16:16:00.347Z,21.25
2022-11-04T16:17:02.484Z,23.02
2022-11-04T16:18:07.661Z,20.71
2022-11-04T16:19:16.429Z,21.81
2022-11-04T16:20:18.422Z,20.64
2022-11-04T16:21:33.463Z,22.49
2022-11-04T16:22:37.591Z,20.98
2022-11-04T16:23:45.819Z,24.45
2022-11-04T16:24:50.539Z,26.86
2022-11-04T16:26:02.579Z,26.22
2022-11-04T16:27:11.613Z,27.29
2022-11-04T16:28:21.592Z,29.72
2022-11-04T16:29:33.081Z,25.36
2022-11-04T16:30:35.431Z,26.84
2022-11-04T16:31:37.458Z,24.37
2022-11-04T16:32:50.713Z,28.57
2022-11-04T16:33:53.400Z,25.63
2022-11-04T16:35:05.821Z,28.64
2022-11-04T16:36:11.632Z,28.59
2022-11-04T16:37:13.567Z,28.78
2022-11-04T16:38:16.735Z,26.85
2022-11-04T16:39:18.646Z,34.53
2022-11-04T16:40:23.464Z,31.55
2022-11-04T16:41:28.286Z,35.39
2022-11-04T16:42:30.224Z,34.83
2022-11-04T16:43:32.807Z,34.62
2022-11-04T16:44:36.813Z,35.61
2022-11-04T16:45:39.785Z,33.88
2022-11-04T16:46:42.030Z,42.74
2022-11-04T16:47:44.411Z,37.65
2022-11-04T16:48:46.323Z,36.15
2022-11-04T16:49:48.252Z,40.03
2022-11-04T16:50:50.432Z,36.57
2022-11-04T16:51:59.130Z,30.11
2022-11-04T16:53:01.994Z,32.86
2022-11-04T16:54:04.921Z,31.10
2022-11-04T16:55:08.391Z,29.86
2022-11-04T16:56:11.068Z,30.66
2022-11-04T16:57:14.280Z,31.35
2022-11-04T16:58:17.827Z,30.54
2022-11-04T16:59:20.289Z,26.29
2022-11-04T17:00:25.969Z,27.12
2022-11-04T17:01:27.994Z,31.83
2022-11-04T17:02:31.433Z,25.83
2022-11-04T17:03:33.508Z,27.86
2022-11-04T17:04:35.502Z,24.83
2022-11-04T17:05:37.395Z,21.29
2022-11-04T17:06:39.534Z,22.55
2022-11-04T17:07:52.801Z,23.75
2022-11-04T17:08:46.134Z,30.68
2022-11-04T17:09:48.664Z,27.71
2022-11-04T17:10:51.979Z,28.79
2022-11-04T17:11:53.992Z,38.29
2022-11-04T17:12:56.012Z,73.55
2022-11-04T17:13:57.921Z,77.24
2022-11-04T17:15:00.745Z,72.25
2022-11-04T17:16:04.279Z,52.69
2022-11-04T17:17:06.653Z,47.48
2022-11-04T17:18:13.246Z,50.37
2022-11-04T17:19:15.674Z,38.92
2022-11-04T17:20:18.816Z,40.43
2022-11-04T17:21:21.206Z,43.65
2022-11-04T17:22:23.230Z,29.61
2022-11-04T17:23:25.243Z,30.77
2022-11-04T17:24:27.865Z,29.78
2022-11-04T17:25:30.008Z,26.91
2022-11-04T17:26:31.999Z,25.67
2022-11-04T17:27:34.080Z,24.97
2022-11-04T17:28:35.974Z,24.07
2022-11-04T17:29:38.005Z,25.67
2022-11-04T17:30:41.408Z,22.75
2022-11-04T17:31:44.739Z,22.62
2022-11-04T17:32:47.971Z,19.39
2022-11-04T17:33:49.881Z,19.95
2022-11-04T17:34:51.771Z,21.53
2022-11-04T17:35:53.969Z,23.10
2022-11-04T17:36:55.988Z,17.90
2022-11-04T17:37:57.874Z,21.50
2022-11-04T17:39:00.091Z,23.79
2022-11-04T17:40:03.146Z,21.37
2022-11-04T17:41:05.946Z,21.22
2022-11-04T17:42:07.829Z,21.06
2022-11-04T17:43:12.386Z,20.23
2022-11-04T17:44:13.526Z,22.07
2022-11-04T17:45:15.643Z,25.39
2022-11-04T17:46:17.750Z,20.61
2022-11-04T17:47:20.245Z,22.42
2022-11-04T17:48:22.163Z,22.39
2022-11-04T17:49:24.899Z,22.84
2022-11-04T17:50:27.178Z,23.12
2022-11-04T17:51:31.027Z,23.98
2022-11-04T17:52:34.732Z,20.92
2022-11-04T17:53:38.681Z,21.36
2022-11-04T17:54:40.878Z,28.98
2022-11-04T17:55:42.790Z,31.31
2022-11-04T17:56:45.094Z,40.19
2022-11-04T17:57:47.078Z,36.71
2022-11-04T17:58:50.386Z,40.97
2022-11-04T17:59:53.505Z,33.65
2022-11-04T18:00:55.723Z,33.10
2022-11-04T18:01:58.281Z,34.21
2022-11-04T18:03:00.444Z,30.97
2022-11-04T18:04:03.277Z,29.34
2022-11-04T18:05:06.608Z,28.76
2022-11-04T21:25:28.779Z,38.30
2022-11-04T21:26:33.523Z,35.00
2022-11-04T21:27:35.449Z,33.30
2022-11-04T21:28:38.366Z,36.32
2022-11-04T21:29:40.295Z,35.96
2022-11-04T21:30:46.263Z,32.39
2022-11-04T21:31:48.184Z,33.55
2022-11-04T21:32:50.083Z,36.91
2022-11-04T21:33:53.553Z,34.69
2022-11-04T21:34:55.458Z,36.39
2022-11-04T21:36:06.896Z,32.09
2022-11-04T21:38:16.824Z,33.36
2022-11-04T21:39:19.105Z,28.52
2022-11-04T21:40:21.959Z,24.12
2022-11-04T21:41:26.617Z,26.50
2022-11-04T21:42:28.589Z,22.85
2022-11-04T21:43:30.473Z,22.18
2022-11-04T21:44:32.392Z,24.11
2022-11-04T21:45:34.903Z,25.27
2022-11-04T21:46:38.708Z,24.07
2022-11-04T21:47:40.806Z,22.51
2022-11-04T21:48:42.676Z,24.31
2022-11-04T21:49:44.564Z,26.67
2022-11-04T21:50:46.916Z,27.33
2022-11-04T21:51:48.925Z,30.58
2022-11-04T21:52:50.976Z,29.69
2022-11-04T21:53:53.072Z,31.37
2022-11-04T21:54:57.401Z,32.96
2022-11-04T21:56:06.501Z,30.34
2022-11-04T21:57:08.436Z,33.93
2022-11-04T21:58:10.630Z,32.73
2022-11-04T21:59:18.530Z,35.23
2022-11-04T22:00:21.103Z,37.09
2022-11-04T22:01:26.160Z,35.32
2022-11-04T22:02:28.561Z,32.88
2022-11-04T22:03:30.815Z,38.91
2022-11-04T22:04:32.688Z,33.89
2022-11-04T22:05:34.558Z,34.99
2022-11-04T22:06:36.545Z,35.18
2022-11-04T22:07:39.520Z,36.26
2022-11-04T22:08:46.839Z,37.08
2022-11-04T22:09:48.758Z,36.76
2022-11-04T22:10:50.730Z,39.57
2022-11-04T22:11:52.602Z,38.09
2022-11-04T22:12:55.463Z,43.35
2022-11-04T22:14:00.893Z,47.51
2022-11-04T22:15:03.505Z,37.73
2022-11-04T22:16:20.470Z,39.81
2022-11-04T22:17:22.396Z,43.02
2022-11-04T22:18:25.807Z,44.77
2022-11-04T22:19:27.818Z,44.32
2022-11-04T22:20:31.144Z,37.77
2022-11-04T22:21:33.407Z,44.38
2022-11-04T22:22:35.293Z,51.27
2022-11-04T22:23:38.173Z,55.29
2022-11-04T22:24:40.098Z,37.84
2022-11-04T22:25:47.313Z,36.84
2022-11-04T22:26:46.147Z,34.46
2022-11-04T22:27:48.089Z,41.59
2022-11-04T22:28:51.961Z,38.89
2022-11-04T22:29:53.855Z,34.33
2022-11-04T22:30:57.232Z,29.10
2022-11-04T22:32:00.305Z,34.78
2022-11-04T22:33:03.591Z,28.79
2022-11-04T22:34:06.122Z,32.46
2022-11-04T22:35:11.177Z,32.15
2022-11-04T22:36:13.909Z,33.80
2022-11-04T22:37:17.716Z,41.91
2022-11-04T22:38:19.650Z,39.49
2022-11-04T22:39:21.546Z,45.04
2022-11-04T22:40:23.829Z,41.53
2022-11-04T22:41:29.488Z,42.95
2022-11-04T22:42:31.580Z,42.66
2022-11-04T22:43:33.718Z,40.11
2022-11-04T22:44:35.603Z,44.50
2022-11-04T22:45:38.606Z,42.66
2022-11-04T22:46:40.852Z,46.62
2022-11-04T22:47:43.091Z,46.21
2022-11-04T22:48:45.324Z,43.61
2022-11-04T22:49:47.209Z,46.59
2022-11-04T22:50:57.589Z,43.86
2022-11-04T22:51:59.560Z,56.64
2022-11-04T22:53:01.480Z,42.73
2022-11-04T22:54:08.140Z,46.78
2022-11-04T22:55:07.892Z,50.42
2022-11-04T22:56:13.513Z,52.33
2022-11-04T22:57:15.481Z,54.02
2022-11-04T22:58:17.986Z,80.68
2022-11-04T22:59:20.578Z,50.15
2022-11-04T23:00:22.577Z,51.73
2022-11-04T23:01:24.546Z,43.05
2022-11-04T23:02:32.446Z,52.18
2022-11-04T23:03:32.523Z,51.23
2022-11-04T23:04:35.879Z,59.29
2022-11-04T23:05:38.925Z,53.37
2022-11-04T23:06:41.522Z,99.07
2022-11-04T23:07:43.516Z,96.41
2022-11-04T23:08:45.496Z,77.74
2022-11-04T23:09:47.866Z,84.14
2022-11-04T23:10:52.335Z,122.97
2022-11-04T23:11:54.290Z,45.74
2022-11-04T23:12:56.179Z,48.50
2022-11-04T23:13:58.676Z,42.75
2022-11-04T23:15:00.764Z,40.75
2022-11-04T23:16:06.138Z,38.19
2022-11-04T23:17:20.280Z,38.56
2022-11-04T23:18:22.760Z,66.86
2022-11-04T23:19:29.752Z,66.80
2022-11-04T23:20:28.650Z,66.55
2022-11-04T23:21:30.561Z,47.91
2022-11-04T23:22:32.457Z,40.66
2022-11-04T23:23:34.344Z,44.19
2022-11-04T23:24:36.229Z,39.49
2022-11-04T23:25:39.340Z,38.08
2022-11-04T23:26:42.193Z,46.53
2022-11-04T23:27:52.707Z,29.13
2022-11-04T23:28:55.543Z,34.36
2022-11-04T23:31:09.965Z,36.58
2022-11-04T23:32:11.858Z,41.04
2022-11-04T23:33:14.737Z,36.99
2022-11-04T23:34:17.542Z,33.58
2022-11-04T23:35:22.146Z,35.85
2022-11-04T23:36:24.175Z,38.55
2022-11-04T23:37:26.045Z,32.44
2022-11-04T23:38:28.576Z,38.02
2022-11-04T23:39:30.667Z,33.85
2022-11-04T23:40:32.861Z,41.16
2022-11-04T23:41:34.864Z,43.58
2022-11-04T23:42:36.776Z,60.12
2022-11-04T23:43:39.366Z,56.03
2022-11-04T23:44:46.721Z,54.28
2022-11-04T23:45:51.729Z,40.82
2022-11-04T23:46:53.775Z,43.50
2022-11-04T23:47:55.771Z,73.28
2022-11-04T23:48:57.780Z,64.19
2022-11-04T23:50:00.870Z,45.30
2022-11-04T23:51:03.227Z,51.08
2022-11-04T23:52:05.129Z,52.17
2022-11-04T23:53:09.076Z,44.53
2022-11-04T23:54:11.410Z,59.46
2022-11-04T23:55:13.418Z,46.26
2022-11-04T23:56:16.452Z,61.13
2022-11-04T23:57:18.754Z,64.87
2022-11-04T23:58:20.830Z,96.01
2022-11-04T23:59:22.717Z,109.19
